Denali National Park, AK

5:32 PM AKDT on September 23, 2014 (GMT -0800)
RAWS STAMPEDE AK US | Change Station
CLOSE
Current Station
Personal Weather Station
Location: Denali National Park, AK
Elevation: 1799 ft
Nearby Weather Stations

Elev 1799 ft 63.75 °N, 150.33 °W | Updated 58 minutes ago

Rain
Rain
41 °F
Feels Like 41 °F
N
1
Wind Variable Wind from SSW
Gusts 3.0 mph

Today
High -- | Low -- °F
--% Chance of Precip.
Yesterday
High -- | Low -- °F
Precip. -- in
7:50 AM 7:59 PM
Waning Crescent, 0% visible
Pressure 29.83 in
Visibility 20.0 miles
Clouds Few 2800 ft
Scattered Clouds 5000 ft
Mostly Cloudy 10000 ft
Windchill 41 °F
Dew Point 38 °F
Humidity 90%
Rainfall 0.00 in
Snow Depth 0 in , 0 in , 1 in
UV 1 out of 12
Pollen Not available.
Air Quality Not available.
Flu Activity Not available.
METAR PAEC 232256Z 19004KT 20SM FEW028 SCT050 BKN100 11/M01 A2983 RMK NOSPECI

More Conditions Fewer Conditions

Pressure 29.83 in
Visibility 20.0 miles
Clouds Few 2800 ft
Scattered Clouds 5000 ft
Mostly Cloudy 10000 ft
Windchill 41 °F
Dew Point 38 °F
Humidity 90%
Rainfall 0.00 in
Snow Depth 0 in , 0 in , 1 in
UV 1 out of 12
Pollen Not available.
Air Quality Not available.
Flu Activity Not available.
METAR PAEC 232256Z 19004KT 20SM FEW028 SCT050 BKN100 11/M01 A2983 RMK NOSPECI

More Conditions Fewer Conditions

10-Day Weather Forecast

Almanac

Astronomy

Sep. 23, 2014 Rise Set
Actual Time 7:50 AM AKDT 7:59 PM AKDT
Civil Twilight 7:03 AM AKDT 8:46 PM AKDT
Nautical Twilight 6:06 AM AKDT 9:43 PM AKDT
Astronomical Twilight 5:01 AM AKDT 10:46 PM AKDT
Moon 7:24 AM AKDT (9/23) 7:35 PM AKDT (9/23)
Length of Visible Light 13h 43m
Length of Day
12h 09m
Tomorrow will be 6m 17s shorter.
Waning Crescent, 0% of the Moon is Illuminated
Today
Waning Crescent
Sep 24
New
Oct 1
First Quarter
Oct 8
Full
Oct 15
Last Quarter

Today's Extremes

State Highs State Lows

Community

WunderPhotos

Upload Photos

1,755,844 photos uploaded!

Nearby

Snow Depth

Station Depth Elevation
Granite Creek 0 in 1240 ft
Grandview 0 in 1100 ft
Eagle Summit 1 in 3650 ft
Cooper Lake 15 in 1200 ft
Upper Tsaina River 0 in 1750 ft

Earthquake Activity

City Distance Mag. Time & Date
No recent earthquake activity has been reported nearby.
Minimum magnitude displayed is 2.5.

Coastal Water Temperatures

Place Temperature
No Stations Reporting

Nearby Weather Stations